createdAt,value
2023-04-03T00:00:21.074Z,33.40
2023-04-03T00:02:52.628Z,32.63
2023-04-03T00:05:23.156Z,32.91
2023-04-03T00:07:53.794Z,33.52
2023-04-03T00:10:25.576Z,33.79
2023-04-03T00:12:55.872Z,33.31
2023-04-03T00:15:26.538Z,33.45
2023-04-03T00:17:57.207Z,33.79
2023-04-03T00:20:28.594Z,34.11
2023-04-03T00:22:59.300Z,33.33
2023-04-03T00:25:30.042Z,32.99
2023-04-03T00:28:00.519Z,33.42
2023-04-03T00:30:30.960Z,33.24
2023-04-03T00:33:01.461Z,32.98
2023-04-03T00:35:32.952Z,32.86
2023-04-03T00:38:03.900Z,31.95
2023-04-03T00:40:39.642Z,31.85
2023-04-03T00:43:17.490Z,31.50
2023-04-03T00:45:54.273Z,32.02
2023-04-03T00:48:53.926Z,31.22
2023-04-03T00:51:27.610Z,31.24
2023-04-03T00:54:02.758Z,31.36
2023-04-03T00:56:35.354Z,31.27
2023-04-03T00:59:24.721Z,30.68
2023-04-03T01:01:58.703Z,29.53
2023-04-03T01:04:41.905Z,31.06
2023-04-03T01:07:14.254Z,30.79
2023-04-03T01:09:45.581Z,30.07
2023-04-03T01:12:28.549Z,30.34
2023-04-03T01:15:02.253Z,29.87
2023-04-03T01:17:45.336Z,29.74
2023-04-03T01:20:34.293Z,30.39
2023-04-03T01:23:13.812Z,29.49
2023-04-03T01:25:54.306Z,29.46
2023-04-03T01:28:32.170Z,30.40
2023-04-03T01:31:20.940Z,29.31
2023-04-03T01:33:52.748Z,29.84
2023-04-03T01:36:27.207Z,29.16
2023-04-03T01:38:58.947Z,29.64
2023-04-03T01:41:29.951Z,29.33
2023-04-03T01:44:08.177Z,29.61
2023-04-03T01:46:40.065Z,29.49
2023-04-03T01:49:10.585Z,29.43
2023-04-03T01:51:41.278Z,30.04
2023-04-03T01:54:11.959Z,29.45
2023-04-03T01:56:43.233Z,28.82
2023-04-03T01:59:14.403Z,29.46
2023-04-03T02:01:45.986Z,29.20
2023-04-03T02:04:16.970Z,28.89
2023-04-03T02:06:47.825Z,28.75
2023-04-03T02:09:19.444Z,28.37
2023-04-03T02:11:50.178Z,28.91
2023-04-03T02:14:26.056Z,28.50
2023-04-03T02:16:56.646Z,28.70
2023-04-03T02:19:27.241Z,28.52
2023-04-03T02:21:57.651Z,28.58
2023-04-03T02:24:28.274Z,28.91
2023-04-03T02:26:59.400Z,28.05
2023-04-03T02:29:29.922Z,28.59
2023-04-03T02:32:01.271Z,28.36
2023-04-03T02:34:32.950Z,28.55
2023-04-03T02:37:05.083Z,28.36
2023-04-03T02:39:35.680Z,27.94
2023-04-03T02:42:06.308Z,27.77
2023-04-03T02:44:38.160Z,28.08
2023-04-03T02:47:08.884Z,28.30
2023-04-03T02:49:40.108Z,28.22
2023-04-03T02:52:10.502Z,28.27
2023-04-03T02:54:41.184Z,27.40
2023-04-03T02:57:13.999Z,27.62
2023-04-03T02:59:44.556Z,28.07
2023-04-03T03:02:15.725Z,27.76
2023-04-03T03:04:46.375Z,28.00
2023-04-03T03:07:17.280Z,27.92
2023-04-03T03:09:47.708Z,28.11
2023-04-03T03:12:18.300Z,28.04
2023-04-03T03:14:49.070Z,27.28
2023-04-03T03:17:20.735Z,27.59
2023-04-03T03:19:51.190Z,28.38
2023-04-03T03:22:22.733Z,29.95
2023-04-03T03:24:53.174Z,31.34
2023-04-03T03:27:24.040Z,31.93
2023-04-03T03:29:54.577Z,31.21
2023-04-03T03:32:25.411Z,31.53
2023-04-03T03:34:55.890Z,31.53
2023-04-03T03:37:27.302Z,31.84
2023-04-03T03:39:58.316Z,31.60
2023-04-03T03:42:28.762Z,32.61
2023-04-03T03:44:59.260Z,32.56
2023-04-03T03:47:29.912Z,32.30
2023-04-03T03:50:01.373Z,32.16
2023-04-03T03:52:32.815Z,32.76
2023-04-03T03:55:03.268Z,31.91
2023-04-03T03:57:33.866Z,31.66
2023-04-03T04:00:06.526Z,32.14
2023-04-03T04:02:46.021Z,31.98
2023-04-03T04:05:20.569Z,32.33
2023-04-03T04:07:51.944Z,32.30
2023-04-03T04:10:22.815Z,31.00
2023-04-03T04:12:53.976Z,32.71
2023-04-03T04:15:28.235Z,32.43
2023-04-03T04:17:59.805Z,32.53
2023-04-03T04:20:30.603Z,31.28
2023-04-03T04:23:01.030Z,32.56
2023-04-03T04:25:32.941Z,32.38
2023-04-03T04:28:04.495Z,32.56
2023-04-03T04:30:35.182Z,32.46
2023-04-03T04:33:07.578Z,32.71
2023-04-03T04:35:38.722Z,31.08
2023-04-03T04:38:11.201Z,31.23
2023-04-03T04:40:42.912Z,32.07
2023-04-03T04:43:16.810Z,31.80
2023-04-03T04:45:49.938Z,31.81
2023-04-03T04:48:23.449Z,30.99
2023-04-03T04:50:53.914Z,25.93
2023-04-03T04:53:24.662Z,23.89
2023-04-03T04:55:55.813Z,24.35
2023-04-03T04:58:26.511Z,21.99
2023-04-03T05:01:09.729Z,22.04
2023-04-03T05:03:47.378Z,20.67
2023-04-03T05:06:18.989Z,21.89
2023-04-03T05:08:50.092Z,21.03
2023-04-03T05:11:20.942Z,20.69
2023-04-03T05:13:53.368Z,19.70
2023-04-03T05:16:26.325Z,20.10
2023-04-03T05:18:57.615Z,20.41
2023-04-03T05:21:30.445Z,19.80
2023-04-03T05:24:02.002Z,19.73
2023-04-03T05:26:35.356Z,19.30
2023-04-03T05:29:06.366Z,19.20
2023-04-03T05:31:38.054Z,19.40
2023-04-03T05:34:11.217Z,19.40
2023-04-03T05:36:44.065Z,18.82
2023-04-03T05:39:16.852Z,18.94
2023-04-03T05:41:49.596Z,18.59
2023-04-03T05:44:20.418Z,18.77
2023-04-03T05:46:53.128Z,18.24
2023-04-03T05:49:23.861Z,19.01
2023-04-03T05:51:54.638Z,18.53
2023-04-03T05:54:32.856Z,19.25
2023-04-03T05:57:14.450Z,18.67
2023-04-03T05:59:46.533Z,19.38
2023-04-03T06:02:23.955Z,19.94
2023-04-03T06:04:56.335Z,19.51
2023-04-03T06:07:30.763Z,19.33
2023-04-03T06:10:01.536Z,19.89
2023-04-03T06:12:33.117Z,19.72
2023-04-03T06:15:03.886Z,19.03
2023-04-03T06:17:34.313Z,20.02
2023-04-03T06:20:06.218Z,19.69
2023-04-03T06:22:37.246Z,19.99
2023-04-03T06:25:08.842Z,19.29
2023-04-03T06:27:39.641Z,19.64
2023-04-03T06:30:10.748Z,19.99
2023-04-03T06:32:41.634Z,18.78
2023-04-03T06:35:13.239Z,19.53
2023-04-03T06:37:43.817Z,19.30
2023-04-03T06:40:25.060Z,19.75
2023-04-03T06:42:55.483Z,19.31
2023-04-03T06:45:27.962Z,19.16
2023-04-03T06:47:59.438Z,19.69
2023-04-03T06:50:29.904Z,18.93
2023-04-03T06:53:00.408Z,19.25
2023-04-03T06:55:30.934Z,18.69
2023-04-03T06:58:01.681Z,18.78
2023-04-03T07:00:32.732Z,18.83
2023-04-03T07:03:04.097Z,19.06
2023-04-03T07:05:34.340Z,18.93
2023-04-03T07:08:05.091Z,19.45
2023-04-03T07:10:35.464Z,19.68
2023-04-03T07:16:00.826Z,19.13
2023-04-03T07:18:31.390Z,19.09
2023-04-03T07:21:02.959Z,19.28
2023-04-03T07:23:36.476Z,19.37
2023-04-03T07:26:11.923Z,18.18
2023-04-03T07:28:43.888Z,18.62
2023-04-03T07:31:19.900Z,19.09
2023-04-03T07:33:50.378Z,19.02
2023-04-03T07:36:27.437Z,18.59
2023-04-03T07:38:58.822Z,19.20
2023-04-03T07:41:29.437Z,19.06
2023-04-03T07:44:03.389Z,19.05
2023-04-03T07:46:34.096Z,19.12
2023-04-03T07:49:05.693Z,18.76
2023-04-03T07:51:37.242Z,19.04
2023-04-03T07:54:07.722Z,19.37
2023-04-03T07:56:40.336Z,19.30
2023-04-03T07:59:10.778Z,19.28
2023-04-03T08:01:44.947Z,19.37
2023-04-03T08:04:15.671Z,18.72
2023-04-03T08:06:47.182Z,19.30
2023-04-03T08:09:18.827Z,19.01
2023-04-03T08:11:49.397Z,18.90
2023-04-03T08:14:20.945Z,19.21
2023-04-03T08:16:52.352Z,19.51
2023-04-03T08:19:26.477Z,19.20
2023-04-03T08:22:01.170Z,18.81
2023-04-03T08:24:32.112Z,19.28
2023-04-03T08:27:02.756Z,18.89
2023-04-03T08:29:33.755Z,19.07
2023-04-03T08:32:05.198Z,19.29
2023-04-03T08:34:39.490Z,19.67
2023-04-03T08:37:10.013Z,19.08
2023-04-03T08:39:40.498Z,19.67
2023-04-03T08:42:35.493Z,19.26
2023-04-03T08:45:17.835Z,19.73
2023-04-03T08:48:03.534Z,19.71
2023-04-03T08:59:42.970Z,19.69
2023-04-03T09:05:24.046Z,20.45
2023-04-03T09:08:18.167Z,19.96
2023-04-03T09:10:48.777Z,19.69
2023-04-03T09:13:28.407Z,19.79
2023-04-03T09:15:59.876Z,20.57
2023-04-03T09:18:42.059Z,20.24
2023-04-03T09:21:39.634Z,20.58
2023-04-03T09:24:12.377Z,20.50
2023-04-03T09:27:13.848Z,21.13
2023-04-03T09:29:48.344Z,21.14
2023-04-03T09:32:37.006Z,20.57
2023-04-03T09:35:27.344Z,21.52
2023-04-03T09:38:15.748Z,21.48
2023-04-03T09:41:06.808Z,21.52
2023-04-03T09:43:41.163Z,22.24
2023-04-03T09:46:32.706Z,22.34
2023-04-03T09:49:09.868Z,22.29
2023-04-03T09:51:41.384Z,22.56
2023-04-03T09:54:43.364Z,22.66
2023-04-03T09:57:16.699Z,21.97
2023-04-03T10:00:07.144Z,22.51
2023-04-03T10:02:43.588Z,22.23
2023-04-03T10:05:42.109Z,22.90
2023-04-03T10:08:18.326Z,22.08
2023-04-03T10:10:51.316Z,22.22
2023-04-03T10:13:23.961Z,22.77
2023-04-03T10:16:10.461Z,22.84
2023-04-03T10:19:01.870Z,22.99
2023-04-03T10:21:53.315Z,22.29
2023-04-03T10:24:26.357Z,22.99
2023-04-03T10:27:01.688Z,22.74
2023-04-03T10:29:58.447Z,22.12
2023-04-03T10:32:57.745Z,23.10
2023-04-03T10:35:34.533Z,21.97
2023-04-03T10:38:16.182Z,22.35
2023-04-03T10:40:55.651Z,22.01
2023-04-03T10:44:13.574Z,22.36
2023-04-03T10:46:59.055Z,22.81
2023-04-03T10:49:35.422Z,22.50
2023-04-03T10:52:23.339Z,22.30
2023-04-03T10:55:06.491Z,22.99
2023-04-03T10:57:37.841Z,22.90
2023-04-03T11:00:19.632Z,22.61
2023-04-03T11:03:04.006Z,22.86
2023-04-03T11:05:46.456Z,22.87
2023-04-03T11:08:50.358Z,23.08
2023-04-03T11:11:25.089Z,22.25
2023-04-03T11:13:58.229Z,22.14
2023-04-03T11:16:32.021Z,22.32
2023-04-03T11:19:27.115Z,22.96
2023-04-03T11:22:18.759Z,22.97
2023-04-03T11:25:01.492Z,22.79
2023-04-03T11:27:43.161Z,22.56
2023-04-03T11:30:23.509Z,22.53
2023-04-03T11:33:04.550Z,22.28
2023-04-03T11:35:38.002Z,22.55
2023-04-03T11:38:09.699Z,21.96
2023-04-03T11:40:45.694Z,22.89
2023-04-03T11:43:25.338Z,22.90
2023-04-03T11:46:05.588Z,22.33
2023-04-03T11:48:39.610Z,22.87
2023-04-03T11:51:19.041Z,22.76
2023-04-03T11:53:53.272Z,22.76
2023-04-03T11:56:33.070Z,22.39
2023-04-03T11:59:18.025Z,22.02
2023-04-03T12:01:49.743Z,22.70
2023-04-03T12:04:22.897Z,22.72
2023-04-03T12:07:02.742Z,22.32
2023-04-03T12:09:38.466Z,22.59
2023-04-03T12:12:44.097Z,22.15
2023-04-03T12:15:56.313Z,22.09
2023-04-03T12:18:58.443Z,22.00
2023-04-03T12:21:59.984Z,22.67
2023-04-03T12:24:35.480Z,22.12
2023-04-03T12:27:23.958Z,21.97
2023-04-03T12:30:08.341Z,22.14
2023-04-03T12:33:12.716Z,22.75
2023-04-03T12:35:51.279Z,22.14
2023-04-03T12:38:41.369Z,22.47
2023-04-03T12:41:42.304Z,22.22
2023-04-03T12:44:48.654Z,22.47
2023-04-03T12:47:38.604Z,22.60
2023-04-03T12:50:27.424Z,22.32
2023-04-03T12:53:04.426Z,22.06
2023-04-03T12:55:35.461Z,22.44
2023-04-03T12:58:29.809Z,22.60
2023-04-03T13:01:03.853Z,21.95
2023-04-03T13:03:34.768Z,22.29
2023-04-03T13:06:08.062Z,22.58
2023-04-03T13:08:37.943Z,22.83
2023-04-03T13:11:13.900Z,23.13
2023-04-03T13:14:05.649Z,23.04
2023-04-03T13:16:37.115Z,22.54
2023-04-03T13:19:07.698Z,22.75
2023-04-03T13:21:38.813Z,23.00
2023-04-03T13:24:15.487Z,22.37
2023-04-03T13:26:46.896Z,22.96
2023-04-03T13:29:37.280Z,22.60
2023-04-03T13:32:09.470Z,22.96
2023-04-03T13:34:47.347Z,22.44
2023-04-03T13:37:32.222Z,22.67
2023-04-03T13:40:07.484Z,22.65
2023-04-03T13:42:45.034Z,21.83
2023-04-03T13:45:22.647Z,22.64
2023-04-03T13:47:57.266Z,22.50
2023-04-03T13:50:30.976Z,22.65
2023-04-03T13:53:28.157Z,22.89
2023-04-03T13:56:07.879Z,22.57
2023-04-03T13:58:41.762Z,22.39
2023-04-03T14:01:22.895Z,23.00
2023-04-03T14:04:01.103Z,22.89
2023-04-03T14:06:33.288Z,22.66
2023-04-03T14:09:03.683Z,22.87
2023-04-03T14:11:37.865Z,22.99
2023-04-03T14:14:25.688Z,22.81
2023-04-03T14:17:02.338Z,22.57
2023-04-03T14:19:38.310Z,22.46
2023-04-03T14:22:20.435Z,23.08
2023-04-03T14:24:54.981Z,22.56
2023-04-03T14:27:29.476Z,22.46
2023-04-03T14:30:01.921Z,22.85
2023-04-03T14:32:32.584Z,22.70
2023-04-03T14:35:03.528Z,22.27
2023-04-03T14:37:34.802Z,22.20
2023-04-03T14:40:07.590Z,22.51
2023-04-03T14:42:40.561Z,22.95
2023-04-03T14:45:15.552Z,22.87
2023-04-03T14:47:50.463Z,22.50
2023-04-03T14:50:25.069Z,22.76
2023-04-03T14:52:59.197Z,22.56
2023-04-03T14:55:30.265Z,23.06
2023-04-03T14:58:00.948Z,22.61
2023-04-03T15:00:31.840Z,22.82
2023-04-03T15:03:02.760Z,22.50
2023-04-03T15:05:33.529Z,22.57
2023-04-03T15:08:04.500Z,22.83
2023-04-03T15:10:35.502Z,23.28
2023-04-03T15:13:06.539Z,22.39
2023-04-03T15:15:39.040Z,23.36
2023-04-03T15:18:13.842Z,23.24
2023-04-03T15:20:45.651Z,23.08
2023-04-03T15:23:18.370Z,23.11
2023-04-03T15:25:51.053Z,22.43
2023-04-03T15:28:27.830Z,22.78
2023-04-03T15:30:58.639Z,23.20
2023-04-03T15:33:30.034Z,23.43
2023-04-03T15:36:06.934Z,23.39
2023-04-03T15:38:40.545Z,23.29
2023-04-03T15:41:11.060Z,22.61
2023-04-03T15:43:41.538Z,22.86
2023-04-03T15:46:13.129Z,23.09
2023-04-03T15:48:43.874Z,23.14
2023-04-03T15:51:14.612Z,23.28
2023-04-03T15:53:45.806Z,23.04
2023-04-03T15:56:17.373Z,22.82
2023-04-03T15:58:47.816Z,23.25
2023-04-03T16:01:18.917Z,23.35
2023-04-03T16:03:50.136Z,23.23
2023-04-03T16:06:21.432Z,23.19
2023-04-03T16:08:53.061Z,22.95
2023-04-03T16:11:23.497Z,23.23
2023-04-03T16:13:54.777Z,23.48
2023-04-03T16:16:28.457Z,23.61
2023-04-03T16:18:59.726Z,23.34
2023-04-03T16:21:31.011Z,23.24
2023-04-03T16:24:03.396Z,23.29
2023-04-03T16:26:33.990Z,23.06
2023-04-03T16:29:04.531Z,23.23
2023-04-03T16:31:36.618Z,23.11
2023-04-03T16:34:07.131Z,22.90
2023-04-03T16:36:37.653Z,23.24
2023-04-03T16:39:08.716Z,23.21
2023-04-03T16:41:40.373Z,23.06
2023-04-03T16:44:10.763Z,23.50
2023-04-03T16:46:41.270Z,23.44
2023-04-03T16:49:12.010Z,23.33
2023-04-03T16:51:42.511Z,23.63
2023-04-03T16:54:16.109Z,23.28
2023-04-03T16:56:46.717Z,23.27
2023-04-03T16:59:17.230Z,22.75
2023-04-03T17:01:48.055Z,22.81
2023-04-03T17:04:19.372Z,23.43
2023-04-03T17:06:51.017Z,22.72
2023-04-03T17:09:23.158Z,23.10
2023-04-03T17:11:53.746Z,22.88
2023-04-03T17:14:24.140Z,23.03
2023-04-03T17:16:56.192Z,22.73
2023-04-03T17:19:27.003Z,23.32
2023-04-03T17:21:57.690Z,22.76
2023-04-03T17:24:31.879Z,22.81
2023-04-03T17:27:02.371Z,22.37
2023-04-03T17:29:33.082Z,22.71
2023-04-03T17:32:03.790Z,22.47
2023-04-03T17:34:35.223Z,22.12
2023-04-03T17:37:06.143Z,22.94
2023-04-03T17:39:36.557Z,22.44
2023-04-03T17:42:06.937Z,22.30
2023-04-03T17:44:37.968Z,21.85
2023-04-03T17:47:08.415Z,22.10
2023-04-03T17:49:39.304Z,22.49
2023-04-03T17:52:09.746Z,22.35
2023-04-03T17:54:40.062Z,21.77
2023-04-03T17:57:10.550Z,22.17
2023-04-03T17:59:42.006Z,22.53
2023-04-03T18:02:12.398Z,21.95
2023-04-03T18:04:42.820Z,22.21
2023-04-03T18:07:13.534Z,21.95
2023-04-03T18:09:46.325Z,21.83
2023-04-03T18:12:17.160Z,22.24
2023-04-03T18:14:48.569Z,22.30
2023-04-03T18:17:21.108Z,22.01
2023-04-03T18:19:53.239Z,21.67
2023-04-03T18:22:26.153Z,21.59
2023-04-03T18:24:56.614Z,21.51
2023-04-03T18:27:29.818Z,22.42
2023-04-03T18:30:04.790Z,21.92
2023-04-03T18:32:35.290Z,21.76
2023-04-03T18:35:08.135Z,22.20
2023-04-03T18:37:38.479Z,22.06
2023-04-03T18:40:09.688Z,22.27
2023-04-03T18:42:43.506Z,21.56
2023-04-03T18:45:22.601Z,21.59
2023-04-03T18:47:53.684Z,21.97
2023-04-03T18:50:24.221Z,22.16
2023-04-03T18:52:55.589Z,22.35
2023-04-03T18:55:26.094Z,22.26
2023-04-03T18:57:56.812Z,22.44
2023-04-03T19:00:27.637Z,22.06
2023-04-03T19:02:58.001Z,22.07
2023-04-03T19:05:28.848Z,22.92
2023-04-03T19:08:00.984Z,22.51
2023-04-03T19:10:32.478Z,22.56
2023-04-03T19:13:03.041Z,22.47
2023-04-03T19:15:34.298Z,22.14
2023-04-03T19:18:04.784Z,22.33
2023-04-03T19:20:35.345Z,22.44
2023-04-03T19:23:05.761Z,22.31
2023-04-03T19:25:37.682Z,22.13
2023-04-03T19:28:08.167Z,22.25
2023-04-03T19:30:40.516Z,22.09
2023-04-03T19:33:11.204Z,22.57
2023-04-03T19:35:43.494Z,22.40
2023-04-03T19:38:14.279Z,22.31
2023-04-03T19:40:45.759Z,22.12
2023-04-03T19:43:18.242Z,22.67
2023-04-03T19:45:48.950Z,22.67
2023-04-03T19:48:19.499Z,22.33
2023-04-03T19:50:49.920Z,21.76
2023-04-03T19:53:23.843Z,22.46
2023-04-03T19:55:54.824Z,22.21
2023-04-03T19:58:25.981Z,22.25
2023-04-03T20:00:56.921Z,22.30
2023-04-03T20:03:28.035Z,21.83
2023-04-03T20:05:59.306Z,22.46
2023-04-03T20:08:33.293Z,21.95
2023-04-03T20:11:03.729Z,22.43
2023-04-03T20:13:34.833Z,22.28
2023-04-03T20:16:08.279Z,21.98
2023-04-03T20:18:40.196Z,22.03
2023-04-03T20:21:12.345Z,21.99
2023-04-03T20:23:42.968Z,21.77
2023-04-03T20:26:26.068Z,22.29
2023-04-03T20:28:59.802Z,22.26
2023-04-03T20:31:31.376Z,22.47
2023-04-03T20:34:03.015Z,21.78
2023-04-03T20:36:34.915Z,22.48
2023-04-03T20:39:05.835Z,22.04
2023-04-03T20:41:38.958Z,21.93
2023-04-03T20:44:09.956Z,21.98
2023-04-03T20:46:52.277Z,22.11
2023-04-03T20:49:24.631Z,22.06
2023-04-03T20:51:55.240Z,21.94
2023-04-03T20:54:26.270Z,22.17
2023-04-03T20:56:56.703Z,21.91
2023-04-03T20:59:28.172Z,21.55
2023-04-03T21:01:59.863Z,21.67
2023-04-03T21:04:43.077Z,21.87
2023-04-03T21:07:50.014Z,21.82
2023-04-03T21:10:57.448Z,21.16
2023-04-03T21:14:04.429Z,21.16
2023-04-03T21:16:34.453Z,21.56
2023-04-03T21:19:17.206Z,21.67
2023-04-03T21:21:48.697Z,21.07
2023-04-03T21:24:20.006Z,21.59
2023-04-03T21:26:50.773Z,21.59
2023-04-03T21:29:21.952Z,20.93
2023-04-03T21:31:58.418Z,21.08
2023-04-03T21:34:31.111Z,20.99
2023-04-03T21:37:06.397Z,21.42
2023-04-03T21:39:38.159Z,21.03
2023-04-03T21:42:08.983Z,21.23
2023-04-03T21:44:40.267Z,20.69
2023-04-03T21:47:10.650Z,20.98
2023-04-03T21:49:41.902Z,21.21
2023-04-03T21:52:12.431Z,21.27
2023-04-03T21:54:42.920Z,21.29
2023-04-03T21:57:13.586Z,21.19
2023-04-03T21:59:45.038Z,20.46
2023-04-03T22:02:15.796Z,20.74
2023-04-03T22:04:48.778Z,20.79
2023-04-03T22:07:19.906Z,21.23
2023-04-03T22:09:50.372Z,20.95
2023-04-03T22:12:20.857Z,21.00
2023-04-03T22:14:51.233Z,20.80
2023-04-03T22:17:22.927Z,20.43
2023-04-03T22:19:56.225Z,20.70
2023-04-03T22:22:27.205Z,20.95
2023-04-03T22:24:58.463Z,20.88
2023-04-03T22:27:28.896Z,20.89
2023-04-03T22:29:59.442Z,20.79
2023-04-03T22:32:29.869Z,20.52
2023-04-03T22:35:01.773Z,21.38
2023-04-03T22:37:33.001Z,21.61
2023-04-03T22:40:04.076Z,21.45
2023-04-03T22:42:34.453Z,21.35
2023-04-03T22:45:05.144Z,21.47
2023-04-03T22:47:35.604Z,21.17
2023-04-03T22:50:07.760Z,21.56
2023-04-03T22:52:38.864Z,21.50
2023-04-03T22:55:18.483Z,21.87
2023-04-03T22:57:50.846Z,22.02
2023-04-03T23:00:22.224Z,22.74
2023-04-03T23:02:53.265Z,22.78
2023-04-03T23:05:23.791Z,22.84
2023-04-03T23:07:54.635Z,23.27
2023-04-03T23:10:25.462Z,22.91
2023-04-03T23:12:56.238Z,23.62
2023-04-03T23:15:26.557Z,23.01
2023-04-03T23:17:57.209Z,24.12
2023-04-03T23:20:28.006Z,24.29
2023-04-03T23:22:58.402Z,23.58
2023-04-03T23:25:28.868Z,24.62
2023-04-03T23:27:59.979Z,24.57
2023-04-03T23:30:32.922Z,24.63
2023-04-03T23:33:03.317Z,24.25
2023-04-03T23:35:33.774Z,24.67
2023-04-03T23:38:12.937Z,25.04
2023-04-03T23:40:50.471Z,25.00
2023-04-03T23:43:23.222Z,24.39
2023-04-03T23:46:00.314Z,24.60
2023-04-03T23:48:30.709Z,24.83
2023-04-03T23:51:02.196Z,24.30
2023-04-03T23:53:32.655Z,24.40
2023-04-03T23:56:03.194Z,24.63
2023-04-03T23:58:34.051Z,24.93
